TimeEST,TemperatureF,Dew PointF,Humidity,Sea Level PressureIn,VisibilityMPH,Wind Direction,Wind SpeedMPH,Gust SpeedMPH,PrecipitationIn,Events,Conditions,WindDirDegrees,DateUTC
12:56 AM,37.0,28.9,73,30.29,10.0,Variable,3.5,-,N/A,,Overcast,0,2013-02-23 05:56:00
1:36 AM,37.4,28.4,70,30.28,10.0,ESE,5.8,-,0.00,,Overcast,110,2013-02-23 06:36:00
1:56 AM,37.0,28.9,73,30.28,10.0,Variable,3.5,-,0.00,,Overcast,0,2013-02-23 06:56:00
2:56 AM,37.0,30.0,76,30.25,10.0,ESE,4.6,-,N/A,,Overcast,120,2013-02-23 07:56:00
3:56 AM,37.0,30.0,76,30.23,10.0,ESE,4.6,-,N/A,,Overcast,110,2013-02-23 08:56:00
4:56 AM,37.9,30.9,76,30.21,10.0,ESE,4.6,-,N/A,,Overcast,110,2013-02-23 09:56:00
5:56 AM,37.9,32.0,79,30.20,10.0,Variable,4.6,-,N/A,,Overcast,0,2013-02-23 10:56:00
6:56 AM,39.0,33.1,79,30.20,10.0,Variable,4.6,-,N/A,,Overcast,0,2013-02-23 11:56:00
7:56 AM,39.0,35.1,86,30.18,10.0,Variable,5.8,-,N/A,,Overcast,0,2013-02-23 12:56:00
8:56 AM,39.9,36.0,86,30.16,10.0,Variable,3.5,-,N/A,,Overcast,0,2013-02-23 13:56:00
9:23 AM,41.0,35.6,81,30.15,10.0,Variable,4.6,-,N/A,,Overcast,0,2013-02-23 14:23:00
9:56 AM,41.0,36.0,82,30.14,8.0,ESE,6.9,-,N/A,,Overcast,120,2013-02-23 14:56:00
10:56 AM,41.0,37.0,86,30.11,10.0,ESE,5.8,-,0.00,,Overcast,110,2013-02-23 15:56:00
11:35 AM,41.0,37.4,87,30.10,2.0,Variable,5.8,-,0.01,Rain,Light Rain,0,2013-02-23 16:35:00
11:42 AM,41.0,37.4,87,30.10,2.0,Variable,6.9,-,0.02,Rain,Light Rain,0,2013-02-23 16:42:00
11:56 AM,41.0,37.9,89,30.09,2.0,Variable,4.6,-,0.02,Rain,Light Rain,0,2013-02-23 16:56:00
12:11 PM,41.0,37.4,87,30.08,4.0,ESE,10.4,16.1,0.01,Rain,Light Rain,110,2013-02-23 17:11:00
12:56 PM,41.0,39.0,93,30.05,6.0,Variable,6.9,18.4,0.02,Rain,Light Rain,0,2013-02-23 17:56:00
1:56 PM,41.0,37.9,89,30.02,5.0,East,9.2,20.7,0.01,Rain,Light Rain,100,2013-02-23 18:56:00
2:38 PM,39.2,37.4,93,30.02,2.0,ESE,6.9,18.4,0.02,Rain,Light Rain,110,2013-02-23 19:38:00
2:56 PM,39.9,37.0,89,30.01,4.0,ESE,9.2,-,0.03,Rain,Light Rain,110,2013-02-23 19:56:00
4:15 PM,39.2,35.6,87,29.98,4.0,East,9.2,-,0.01,Rain,Light Rain,90,2013-02-23 21:15:00
4:56 PM,39.0,37.0,93,29.97,4.0,Variable,4.6,-,0.03,Rain,Light Rain,0,2013-02-23 21:56:00
5:56 PM,37.9,36.0,93,29.95,2.5,Variable,4.6,-,0.01,Rain,Light Rain,0,2013-02-23 22:56:00
6:30 PM,37.4,35.6,93,29.94,3.0,Variable,3.5,-,0.03,Rain,Light Rain,0,2013-02-23 23:30:00
6:56 PM,37.0,35.1,93,29.94,4.0,Variable,5.8,-,0.04,Rain,Light Rain,0,2013-02-23 23:56:00
7:56 PM,37.0,35.1,93,29.91,5.0,Variable,5.8,-,0.01,,Overcast,0,2013-02-24 00:56:00
8:56 PM,37.0,35.1,93,29.88,7.0,Variable,5.8,-,N/A,,Overcast,0,2013-02-24 01:56:00
9:56 PM,37.0,35.1,93,29.83,5.0,Variable,6.9,-,N/A,,Overcast,0,2013-02-24 02:56:00
11:56 PM,36.0,34.0,93,29.79,3.0,Variable,6.9,-,N/A,,Overcast,0,2013-02-24 04:56:00